createdAt,value
2018-07-17T00:02:04.983Z,16.30
2018-07-17T00:05:15.235Z,16.30
2018-07-17T00:08:25.463Z,16.30
2018-07-17T00:11:35.688Z,16.20
2018-07-17T00:14:46.545Z,16.20
2018-07-17T00:17:56.859Z,16.10
2018-07-17T00:21:07.142Z,16.00
2018-07-17T00:24:17.785Z,16.10
2018-07-17T00:27:30.426Z,16.00
2018-07-17T00:30:40.629Z,15.90
2018-07-17T00:33:51.320Z,15.90
2018-07-17T00:37:01.198Z,15.80
2018-07-17T00:40:11.147Z,15.80
2018-07-17T00:43:21.590Z,15.80
2018-07-17T00:46:31.964Z,15.70
2018-07-17T00:49:41.973Z,15.80
2018-07-17T00:52:52.059Z,15.80
2018-07-17T00:56:02.801Z,15.80
2018-07-17T00:59:13.179Z,15.70
2018-07-17T01:02:28.710Z,15.60
2018-07-17T01:05:44.627Z,15.60
2018-07-17T01:09:00.671Z,15.50
2018-07-17T01:12:13.399Z,15.40
2018-07-17T01:15:29.774Z,15.20
2018-07-17T01:18:40.337Z,15.10
2018-07-17T01:21:50.558Z,15.20
2018-07-17T01:25:00.686Z,15.10
2018-07-17T01:28:11.490Z,15.00
2018-07-17T01:31:21.617Z,15.00
2018-07-17T01:34:31.545Z,15.10
2018-07-17T01:37:41.529Z,15.10
2018-07-17T01:40:52.277Z,15.10
2018-07-17T01:44:03.100Z,15.00
2018-07-17T01:47:13.157Z,15.00
2018-07-17T01:50:23.027Z,15.00
2018-07-17T01:53:33.702Z,15.00
2018-07-17T01:56:44.312Z,14.90
2018-07-17T02:03:04.645Z,14.90
2018-07-17T02:06:14.694Z,14.90
2018-07-17T02:09:24.551Z,14.90
2018-07-17T02:12:34.499Z,14.90
2018-07-17T02:15:44.750Z,14.90
2018-07-17T02:18:54.778Z,14.80
2018-07-17T02:22:05.178Z,14.80
2018-07-17T02:25:15.877Z,14.80
2018-07-17T02:28:25.828Z,14.70
2018-07-17T02:31:36.718Z,14.80
2018-07-17T02:34:47.368Z,14.80
2018-07-17T02:37:58.205Z,14.60
2018-07-17T02:41:08.309Z,14.60
2018-07-17T02:44:19.293Z,14.60
2018-07-17T02:47:29.416Z,14.50
2018-07-17T02:50:40.070Z,14.50
2018-07-17T02:53:50.841Z,14.50
2018-07-17T02:57:01.194Z,14.40
2018-07-17T03:00:11.757Z,14.30
2018-07-17T03:03:21.919Z,14.30
2018-07-17T03:06:32.488Z,14.30
2018-07-17T03:09:43.558Z,14.20
2018-07-17T03:12:54.483Z,14.20
2018-07-17T03:16:04.722Z,14.20
2018-07-17T03:19:15.502Z,14.10
2018-07-17T03:22:25.622Z,14.20
2018-07-17T03:25:35.795Z,14.10
2018-07-17T03:28:45.930Z,13.90
2018-07-17T03:31:55.983Z,14.00
2018-07-17T03:35:06.188Z,14.10
2018-07-17T03:38:16.606Z,14.00
2018-07-17T03:41:26.732Z,14.00
2018-07-17T03:44:37.601Z,13.90
2018-07-17T03:47:47.866Z,14.00
2018-07-17T03:50:57.983Z,14.00
2018-07-17T03:54:08.678Z,14.00
2018-07-17T03:57:18.876Z,14.10
2018-07-17T04:00:29.891Z,14.10
2018-07-17T04:03:40.579Z,14.20
2018-07-17T04:06:50.594Z,14.30
2018-07-17T04:10:00.742Z,14.30
2018-07-17T04:13:11.682Z,14.30
2018-07-17T04:16:22.249Z,14.30
2018-07-17T04:19:32.258Z,14.20
2018-07-17T04:22:42.194Z,14.30
2018-07-17T04:25:52.097Z,14.30
2018-07-17T04:29:02.895Z,14.40
2018-07-17T04:32:12.986Z,14.40
2018-07-17T04:35:23.270Z,14.40
2018-07-17T04:38:33.960Z,14.40
2018-07-17T04:41:44.184Z,14.60
2018-07-17T04:44:54.418Z,14.70
2018-07-17T04:48:04.382Z,14.80
2018-07-17T04:51:14.255Z,14.90
2018-07-17T04:54:24.318Z,15.00
2018-07-17T04:57:34.808Z,15.10
2018-07-17T05:00:45.467Z,15.30
2018-07-17T05:03:55.689Z,15.40
2018-07-17T05:07:05.665Z,15.50
2018-07-17T05:10:16.423Z,15.60
2018-07-17T05:13:26.331Z,15.80
2018-07-17T05:16:36.268Z,15.90
2018-07-17T05:19:48.530Z,16.20
2018-07-17T05:22:58.759Z,16.20
2018-07-17T05:26:09.454Z,16.40
2018-07-17T05:29:20.450Z,16.50
2018-07-17T05:32:30.934Z,16.60
2018-07-17T05:35:41.014Z,16.70
2018-07-17T05:38:51.767Z,16.80
2018-07-17T05:42:02.019Z,16.90
2018-07-17T05:45:12.175Z,17.00
2018-07-17T05:48:22.821Z,17.20
2018-07-17T05:51:33.589Z,17.30
2018-07-17T05:54:44.517Z,17.40
2018-07-17T05:57:55.540Z,17.50
2018-07-17T06:01:06.241Z,17.50
2018-07-17T06:04:16.940Z,17.60
2018-07-17T06:07:27.688Z,17.70
2018-07-17T06:10:38.106Z,17.80
2018-07-17T06:13:48.121Z,18.00
2018-07-17T06:16:57.937Z,18.00
2018-07-17T06:20:09.014Z,18.20
2018-07-17T06:23:19.290Z,18.30
2018-07-17T06:26:29.383Z,18.40
2018-07-17T06:29:40.105Z,18.60
2018-07-17T06:32:50.168Z,18.80
2018-07-17T06:36:00.858Z,18.90
2018-07-17T06:39:10.960Z,19.10
2018-07-17T06:42:20.919Z,19.30
2018-07-17T06:45:31.967Z,19.30
2018-07-17T06:48:42.317Z,19.50
2018-07-17T06:51:53.899Z,19.60
2018-07-17T06:55:04.488Z,19.80
2018-07-17T06:58:14.797Z,19.90
2018-07-17T07:01:25.312Z,20.00
2018-07-17T07:04:36.071Z,20.10
2018-07-17T07:07:45.986Z,20.30
2018-07-17T07:10:56.054Z,20.40
2018-07-17T07:14:06.917Z,20.50
2018-07-17T07:17:17.530Z,20.60
2018-07-17T07:20:27.489Z,20.80
2018-07-17T07:23:37.819Z,21.00
2018-07-17T07:26:48.454Z,21.20
2018-07-17T07:29:59.373Z,21.20
2018-07-17T07:33:10.162Z,21.40
2018-07-17T07:36:21.007Z,21.60
2018-07-17T07:39:30.881Z,21.70
2018-07-17T07:42:41.647Z,21.90
2018-07-17T07:45:52.520Z,22.10
2018-07-17T07:49:03.582Z,22.00
2018-07-17T07:52:14.166Z,22.30
2018-07-17T07:55:25.222Z,22.40
2018-07-17T07:58:36.083Z,22.60
2018-07-17T08:01:49.287Z,22.80
2018-07-17T08:04:59.031Z,23.00
2018-07-17T08:08:11.367Z,23.10
2018-07-17T08:11:21.771Z,23.20
2018-07-17T08:14:32.265Z,23.30
2018-07-17T08:17:42.805Z,23.40
2018-07-17T08:20:55.560Z,23.50
2018-07-17T08:24:06.182Z,23.60
2018-07-17T08:27:16.520Z,23.80
2018-07-17T08:30:26.576Z,23.80
2018-07-17T08:33:36.920Z,24.00
2018-07-17T08:36:47.026Z,24.10
2018-07-17T08:39:57.962Z,24.20
2018-07-17T08:43:08.448Z,24.20
2018-07-17T08:46:19.767Z,24.30
2018-07-17T08:49:30.297Z,24.50
2018-07-17T08:52:40.236Z,24.60
2018-07-17T08:55:50.122Z,24.70
2018-07-17T08:59:00.706Z,24.90
2018-07-17T09:02:10.938Z,24.80
2018-07-17T09:05:20.552Z,24.80
2018-07-17T09:08:30.327Z,25.00
2018-07-17T09:11:40.074Z,25.10
2018-07-17T09:14:49.981Z,25.20
2018-07-17T09:17:59.977Z,25.30
2018-07-17T09:21:09.953Z,25.30
2018-07-17T09:24:20.048Z,25.20
2018-07-17T09:27:30.342Z,25.40
2018-07-17T09:30:45.449Z,25.60
2018-07-17T09:33:55.377Z,25.60
2018-07-17T09:37:05.783Z,25.80
2018-07-17T09:40:15.910Z,25.50
2018-07-17T09:43:26.071Z,25.60
2018-07-17T09:46:36.093Z,25.60
2018-07-17T09:49:46.158Z,25.80
2018-07-17T09:52:55.984Z,25.90
2018-07-17T09:56:05.772Z,26.10
2018-07-17T09:59:15.583Z,26.10
2018-07-17T10:02:29.764Z,26.10
2018-07-17T10:05:40.081Z,26.00
2018-07-17T10:08:50.036Z,26.20
2018-07-17T10:12:00.546Z,26.50
2018-07-17T10:15:10.289Z,26.50
2018-07-17T10:18:20.155Z,26.60
2018-07-17T10:21:30.089Z,26.60
2018-07-17T10:24:39.709Z,26.70
2018-07-17T10:27:49.445Z,26.40
2018-07-17T10:30:59.529Z,26.60
2018-07-17T10:34:09.370Z,26.70
2018-07-17T10:37:19.301Z,27.10
2018-07-17T10:40:29.185Z,26.90
2018-07-17T10:43:38.894Z,26.30
2018-07-17T10:46:48.827Z,26.40
2018-07-17T10:49:58.508Z,26.60
2018-07-17T10:53:08.436Z,26.70
2018-07-17T10:56:19.147Z,26.90
2018-07-17T11:02:40.626Z,27.00
2018-07-17T11:05:53.123Z,27.10
2018-07-17T11:09:04.421Z,27.10
2018-07-17T11:12:14.707Z,27.30
2018-07-17T11:15:24.650Z,27.30
2018-07-17T11:18:34.633Z,27.20
2018-07-17T11:21:45.590Z,27.30
2018-07-17T11:28:06.698Z,27.40
2018-07-17T11:31:17.771Z,27.50
2018-07-17T11:34:27.728Z,27.40
2018-07-17T11:37:37.911Z,27.10
2018-07-17T11:40:47.605Z,27.20
2018-07-17T11:43:57.704Z,27.50
2018-07-17T11:47:07.690Z,27.60
2018-07-17T11:50:17.422Z,27.60
2018-07-17T11:53:27.289Z,27.80
2018-07-17T11:56:37.202Z,28.00
2018-07-17T11:59:48.275Z,28.00
2018-07-17T12:06:08.598Z,28.10
2018-07-17T12:09:19.346Z,28.20
2018-07-17T12:12:29.980Z,28.30
2018-07-17T12:15:39.716Z,28.30
2018-07-17T12:18:49.286Z,28.20
2018-07-17T12:21:59.414Z,27.80
2018-07-17T12:25:09.810Z,28.00
2018-07-17T12:28:19.658Z,28.00
2018-07-17T12:31:29.860Z,28.30
2018-07-17T12:34:40.450Z,28.40
2018-07-17T12:37:50.193Z,28.00
2018-07-17T12:41:00.094Z,27.70
2018-07-17T12:44:09.969Z,27.80
2018-07-17T12:47:20.593Z,27.70
2018-07-17T12:50:30.730Z,27.90
2018-07-17T12:53:40.590Z,27.80
2018-07-17T12:56:50.273Z,27.60
2018-07-17T13:00:00.769Z,27.70
2018-07-17T13:03:11.312Z,27.90
2018-07-17T13:06:21.390Z,28.00
2018-07-17T13:09:30.937Z,28.30
2018-07-17T13:12:40.813Z,28.50
2018-07-17T13:15:50.810Z,28.40
2018-07-17T13:19:00.428Z,28.50
2018-07-17T13:22:10.588Z,28.60
2018-07-17T13:25:20.231Z,28.50
2018-07-17T13:28:30.484Z,28.20
2018-07-17T13:31:40.564Z,28.20
2018-07-17T13:34:50.401Z,28.40
2018-07-17T13:38:00.279Z,28.70
2018-07-17T13:41:10.135Z,28.80
2018-07-17T13:44:20.352Z,28.90
2018-07-17T13:47:30.536Z,28.90
2018-07-17T13:50:40.978Z,29.10
2018-07-17T13:53:50.940Z,29.20
2018-07-17T13:57:00.830Z,29.40
2018-07-17T14:00:10.854Z,29.60
2018-07-17T14:03:21.717Z,29.60
2018-07-17T14:06:31.524Z,29.10
2018-07-17T14:09:41.409Z,29.20
2018-07-17T14:12:51.755Z,29.40
2018-07-17T14:16:01.547Z,29.60
2018-07-17T14:19:12.109Z,29.60
2018-07-17T14:22:22.251Z,29.50
2018-07-17T14:25:32.142Z,29.50
2018-07-17T14:28:41.781Z,29.60
2018-07-17T14:31:51.694Z,29.50
2018-07-17T14:35:01.793Z,29.40
2018-07-17T14:38:11.599Z,29.30
2018-07-17T14:41:21.338Z,28.90
2018-07-17T14:44:31.118Z,29.00
2018-07-17T14:47:41.026Z,28.90
2018-07-17T14:50:50.606Z,29.00
2018-07-17T14:54:00.349Z,29.20
2018-07-17T14:57:10.422Z,29.30
2018-07-17T15:00:20.482Z,29.20
2018-07-17T15:03:31.196Z,29.10
2018-07-17T15:06:41.455Z,29.20
2018-07-17T15:09:51.139Z,29.10
2018-07-17T15:13:02.000Z,29.30
2018-07-17T15:16:12.158Z,29.30
2018-07-17T15:19:22.377Z,28.90
2018-07-17T15:22:32.452Z,28.70
2018-07-17T15:25:42.366Z,28.60
2018-07-17T15:28:52.347Z,28.50
2018-07-17T15:32:03.357Z,28.40
2018-07-17T15:35:13.099Z,28.40
2018-07-17T15:38:23.322Z,28.40
2018-07-17T15:41:34.225Z,28.40
2018-07-17T15:44:44.862Z,28.30
2018-07-17T15:47:54.418Z,28.30
2018-07-17T15:51:04.350Z,28.10
2018-07-17T15:54:14.271Z,28.00
2018-07-17T15:57:24.566Z,28.10
2018-07-17T16:00:34.685Z,28.20
2018-07-17T16:03:45.425Z,28.10
2018-07-17T16:06:56.383Z,28.00
2018-07-17T16:10:06.073Z,27.90
2018-07-17T16:13:16.880Z,28.00
2018-07-17T16:16:27.043Z,28.00
2018-07-17T16:19:36.912Z,28.10
2018-07-17T16:22:49.143Z,28.10
2018-07-17T16:26:00.829Z,28.00
2018-07-17T16:29:10.606Z,27.90
2018-07-17T16:32:21.028Z,27.80
2018-07-17T16:35:31.651Z,27.70
2018-07-17T16:38:41.480Z,27.60
2018-07-17T16:41:51.255Z,27.60
2018-07-17T16:45:01.234Z,27.50
2018-07-17T16:48:11.140Z,27.50
2018-07-17T16:51:21.493Z,27.40
2018-07-17T16:54:31.348Z,27.40
2018-07-17T16:57:41.456Z,27.30
2018-07-17T17:00:51.574Z,27.30
2018-07-17T17:04:01.986Z,27.30
2018-07-17T17:07:12.190Z,27.20
2018-07-17T17:10:24.216Z,27.20
2018-07-17T17:13:37.815Z,27.10
2018-07-17T17:16:48.951Z,27.10
2018-07-17T17:20:02.351Z,27.00
2018-07-17T17:23:13.019Z,27.00
2018-07-17T17:26:23.852Z,27.00
2018-07-17T17:29:34.499Z,27.00
2018-07-17T17:32:44.475Z,27.00
2018-07-17T17:35:55.160Z,27.00
2018-07-17T17:39:08.313Z,27.00
2018-07-17T17:42:18.635Z,27.00
2018-07-17T17:45:28.588Z,27.10
2018-07-17T17:48:38.855Z,27.00
2018-07-17T17:51:49.264Z,27.00
2018-07-17T17:55:00.636Z,26.90
2018-07-17T17:58:11.022Z,26.80
2018-07-17T18:01:21.675Z,26.80
2018-07-17T18:04:31.947Z,26.70
2018-07-17T18:07:42.705Z,26.70
2018-07-17T18:10:53.449Z,26.60
2018-07-17T18:14:03.862Z,26.50
2018-07-17T18:17:13.662Z,26.40
2018-07-17T18:20:23.377Z,26.30
2018-07-17T18:23:33.154Z,26.20
2018-07-17T18:26:43.858Z,26.20
2018-07-17T18:29:53.548Z,26.20
2018-07-17T18:33:03.444Z,26.10
2018-07-17T18:36:14.239Z,26.00
2018-07-17T18:39:23.923Z,25.90
2018-07-17T18:42:33.585Z,25.90
2018-07-17T18:45:43.272Z,25.90
2018-07-17T18:48:53.022Z,25.90
2018-07-17T18:52:03.302Z,25.90
2018-07-17T18:55:13.646Z,25.80
2018-07-17T18:58:23.500Z,25.70
2018-07-17T19:01:33.929Z,25.60
2018-07-17T19:04:44.294Z,25.60
2018-07-17T19:07:54.465Z,25.50
2018-07-17T19:11:04.532Z,25.40
2018-07-17T19:14:14.862Z,25.40
2018-07-17T19:17:25.151Z,25.20
2018-07-17T19:20:35.809Z,25.20
2018-07-17T19:23:45.578Z,25.10
2018-07-17T19:26:56.285Z,25.00
2018-07-17T19:30:06.241Z,24.90
2018-07-17T19:33:18.360Z,24.80
2018-07-17T19:36:29.040Z,24.70
2018-07-17T19:39:38.721Z,24.50
2018-07-17T19:42:49.288Z,24.40
2018-07-17T19:45:59.206Z,24.20
2018-07-17T19:49:09.864Z,24.10
2018-07-17T19:52:19.681Z,23.90
2018-07-17T19:55:29.575Z,23.80
2018-07-17T19:58:39.589Z,23.70
2018-07-17T20:01:50.053Z,23.50
2018-07-17T20:05:00.443Z,23.30
2018-07-17T20:08:10.664Z,23.20
2018-07-17T20:11:20.831Z,23.10
2018-07-17T20:14:31.123Z,23.00
2018-07-17T20:17:42.838Z,22.80
2018-07-17T20:20:53.665Z,22.80
2018-07-17T20:24:03.562Z,22.60
2018-07-17T20:27:14.197Z,22.60
2018-07-17T20:30:24.162Z,22.40
2018-07-17T20:33:35.096Z,22.30
2018-07-17T20:36:45.823Z,22.20
2018-07-17T20:39:56.570Z,22.10
2018-07-17T20:43:07.207Z,21.90
2018-07-17T20:46:17.586Z,21.80
2018-07-17T20:49:27.848Z,21.80
2018-07-17T20:52:38.830Z,21.70
2018-07-17T20:55:49.490Z,21.60
2018-07-17T20:59:00.012Z,21.60
2018-07-17T21:02:12.003Z,21.50
2018-07-17T21:05:21.697Z,21.50
2018-07-17T21:08:31.758Z,21.40
2018-07-17T21:11:42.616Z,21.20
2018-07-17T21:14:53.428Z,21.20
2018-07-17T21:18:03.862Z,21.10
2018-07-17T21:21:13.887Z,21.00
2018-07-17T21:24:24.804Z,21.00
2018-07-17T21:27:35.021Z,20.90
2018-07-17T21:30:45.730Z,20.90
2018-07-17T21:33:55.670Z,20.80
2018-07-17T21:37:06.646Z,20.60
2018-07-17T21:40:17.219Z,20.60
2018-07-17T21:43:27.892Z,20.50
2018-07-17T21:46:37.883Z,20.50
2018-07-17T21:49:48.741Z,20.40
2018-07-17T21:52:58.654Z,20.20
2018-07-17T21:56:09.254Z,20.10
2018-07-17T21:59:19.319Z,20.00
2018-07-17T22:02:30.192Z,19.90
2018-07-17T22:05:40.847Z,19.80
2018-07-17T22:08:58.411Z,19.70
2018-07-17T22:12:08.350Z,19.70
2018-07-17T22:15:19.127Z,19.60
2018-07-17T22:18:29.910Z,19.50
2018-07-17T22:21:39.873Z,19.40
2018-07-17T22:24:50.772Z,19.40
2018-07-17T22:28:01.374Z,19.30
2018-07-17T22:31:12.129Z,19.20
2018-07-17T22:34:22.099Z,19.10
2018-07-17T22:37:32.067Z,19.10
2018-07-17T22:40:42.706Z,19.00
2018-07-17T22:43:53.527Z,18.70
2018-07-17T22:47:04.277Z,18.60
2018-07-17T22:50:14.887Z,18.70
2018-07-17T22:53:25.681Z,18.30
2018-07-17T22:56:36.240Z,18.30
2018-07-17T22:59:46.191Z,18.40
2018-07-17T23:02:57.295Z,18.50
2018-07-17T23:06:07.828Z,18.50
2018-07-17T23:09:17.778Z,18.50
2018-07-17T23:12:28.505Z,18.50
2018-07-17T23:18:48.007Z,18.40
2018-07-17T23:21:59.198Z,18.30
2018-07-17T23:25:10.954Z,18.30
2018-07-17T23:28:21.715Z,18.20
2018-07-17T23:31:32.475Z,18.20
2018-07-17T23:34:43.193Z,18.20
2018-07-17T23:37:54.292Z,18.20
2018-07-17T23:41:04.922Z,18.10
2018-07-17T23:44:15.470Z,17.90
2018-07-17T23:47:26.281Z,18.00
2018-07-17T23:50:37.025Z,17.90
2018-07-17T23:53:47.424Z,17.90
2018-07-17T23:56:57.309Z,17.80
